Time;durP1;ratioP1;P1;durP2;ratioP2;P2;SDS_P1;SDS_P2;PMS_P1;PMS_P2;Temp;Humidity;BMP_temperature;BMP_pressure;BME280_temperature;BME280_humidity;BME280_pressure;Samples;Min_cycle;Max_cycle;Signal;HPM_P1;HPM_P2
2023/08/05 00:01:38;;;;;;;9.07;6.72;;;;;;;-143.21;41.88;70151.19;5113558;27;20578;-79
2023/08/05 00:04:05;;;;;;;9.63;7.20;;;;;;;-143.21;42.19;70153.16;5111416;27;20691;-79
2023/08/05 00:06:33;;;;;;;9.30;7.00;;;;;;;-143.21;42.30;70159.13;5111871;27;20683;-79
2023/08/05 00:09:00;;;;;;;10.15;7.18;;;;;;;-143.21;42.42;70159.13;5111276;27;20196;-84
2023/08/05 00:11:26;;;;;;;9.98;7.10;;;;;;;-143.21;42.18;70155.16;5111276;27;20220;-84
2023/08/05 00:13:53;;;;;;;8.25;7.18;;;;;;;-143.21;42.15;70172.97;5112181;27;20200;-84
2023/08/05 00:16:20;;;;;;;11.18;7.07;;;;;;;-143.21;42.61;70167.03;5111629;27;20204;-84
2023/08/05 00:18:47;;;;;;;11.93;7.07;;;;;;;-143.21;42.28;70169.03;5110544;27;20223;-84
2023/08/05 00:21:13;;;;;;;8.35;7.05;;;;;;;-143.21;42.65;70169.03;5124776;27;20735;-84
2023/08/05 00:23:42;;;;;;;8.40;7.10;;;;;;;-143.21;42.67;70174.97;5127399;27;20195;-84
2023/08/05 00:26:08;;;;;;;9.75;6.78;;;;;;;-143.21;42.86;70182.91;5120741;27;20207;-84
2023/08/05 00:28:35;;;;;;;7.75;6.68;;;;;;;-143.21;42.88;70176.94;5107961;27;20200;-84
2023/08/05 00:31:07;;;;;;;18.00;6.70;;;;;;;-143.21;42.73;70174.97;5111210;27;20579;-84
2023/08/05 00:33:34;;;;;;;9.38;7.05;;;;;;;-143.21;42.72;70182.91;5110738;28;20200;-84
2023/08/05 00:36:01;;;;;;;10.45;6.75;;;;;;;-143.21;42.99;70186.84;5110941;27;20207;-84
2023/08/05 00:38:28;;;;;;;8.20;6.65;;;;;;;-143.21;42.97;70194.78;5120106;27;20276;-84
2023/08/05 00:40:56;;;;;;;10.40;6.95;;;;;;;-143.21;43.02;70184.88;5111027;27;20204;-84
2023/08/05 00:43:23;;;;;;;8.95;6.63;;;;;;;-143.21;43.20;70194.78;5121337;27;20685;-85
2023/08/05 00:45:50;;;;;;;11.38;6.88;;;;;;;-143.21;43.35;70188.84;5116839;27;20562;-84
2023/08/05 00:48:17;;;;;;;11.10;7.10;;;;;;;-143.21;43.06;70194.78;5121391;27;20665;-85
2023/08/05 00:50:45;;;;;;;10.57;7.43;;;;;;;-143.21;43.13;70192.81;5111002;27;20203;-85
2023/08/05 00:53:12;;;;;;;8.05;6.30;;;;;;;-143.21;43.36;70186.84;5109272;28;20248;-84
2023/08/05 00:55:39;;;;;;;8.80;7.18;;;;;;;-143.21;43.16;70190.81;5109678;27;20207;-84
2023/08/05 00:58:08;;;;;;;8.20;6.35;;;;;;;-143.21;43.23;70198.75;5111906;28;20650;-84
2023/08/05 01:00:35;;;;;;;9.60;7.10;;;;;;;-143.21;43.42;70200.72;5111031;27;20200;-82
2023/08/05 01:03:01;;;;;;;10.40;6.93;;;;;;;-143.21;43.75;70220.56;5110830;27;20207;-83
2023/08/05 01:05:29;;;;;;;7.93;7.10;;;;;;;-143.21;43.96;70220.56;5110588;27;20215;-82
2023/08/05 01:07:57;;;;;;;12.75;7.10;;;;;;;-143.21;43.90;70224.50;5115305;27;20200;-83
2023/08/05 01:10:24;;;;;;;10.90;6.85;;;;;;;-143.21;43.93;70222.53;5110876;27;20204;-84
2023/08/05 01:12:50;;;;;;;9.98;6.93;;;;;;;-143.21;44.20;70240.38;5111523;27;20733;-85
2023/08/05 01:15:18;;;;;;;10.63;7.07;;;;;;;-143.21;44.28;70254.25;5110156;27;20242;-84
2023/08/05 01:17:45;;;;;;;12.50;7.22;;;;;;;-143.21;44.86;70264.16;5114629;27;20210;-84
2023/08/05 01:20:14;;;;;;;11.55;7.25;;;;;;;-143.21;45.01;70272.09;5110370;27;20204;-84
2023/08/05 01:22:44;;;;;;;8.85;6.88;;;;;;;-143.21;44.97;70274.06;5114439;27;20207;-85
2023/08/05 01:25:38;;;;;;;8.50;7.10;;;;;;;-143.21;45.10;70287.94;5115151;27;20198;-83
2023/08/05 01:28:06;;;;;;;12.15;6.90;;;;;;;-143.21;45.44;70289.91;5123557;27;20253;-84
2023/08/05 01:30:34;;;;;;;10.82;7.10;;;;;;;-143.21;45.28;70287.94;5118629;27;20663;-83
2023/08/05 01:33:02;;;;;;;8.13;7.07;;;;;;;-143.21;45.35;70282.00;5109466;28;20220;-83
2023/08/05 01:35:29;;;;;;;8.77;6.95;;;;;;;-143.21;45.48;70289.91;5110349;28;20196;-83
2023/08/05 01:37:56;;;;;;;13.43;7.38;;;;;;;-143.21;45.52;70291.91;5109856;27;20208;-84
2023/08/05 01:40:27;;;;;;;14.57;7.07;;;;;;;-143.21;45.48;70299.84;5109334;28;20207;-83
2023/08/05 01:42:56;;;;;;;8.95;7.30;;;;;;;-143.21;45.71;70297.84;5108989;27;20203;-83
2023/08/05 01:45:23;;;;;;;12.07;6.90;;;;;;;-143.21;45.31;70289.91;5113451;27;20208;-83
2023/08/05 01:47:50;;;;;;;9.18;7.22;;;;;;;-143.21;45.43;70285.97;5117089;27;20268;-83
2023/08/05 01:50:17;;;;;;;7.97;6.70;;;;;;;-143.21;45.66;70305.78;5113869;27;20211;-83
2023/08/05 01:52:44;;;;;;;8.95;7.00;;;;;;;-143.21;45.79;70307.75;5107819;28;20232;-83
2023/08/05 01:55:10;;;;;;;13.73;6.93;;;;;;;-143.21;46.04;70329.56;5103031;28;20203;-83
2023/08/05 01:57:37;;;;;;;7.93;7.10;;;;;;;-143.21;46.13;70333.53;5110422;27;20196;-83
2023/08/05 02:00:07;;;;;;;10.70;7.38;;;;;;;-143.21;46.29;70335.50;5109737;27;20207;-83
2023/08/05 02:02:34;;;;;;;10.90;7.15;;;;;;;-143.21;46.42;70345.41;5109982;27;20663;-83
2023/08/05 02:05:00;;;;;;;8.77;7.15;;;;;;;-143.21;46.23;70345.41;5114490;27;20203;-82
2023/08/05 02:07:27;;;;;;;12.68;6.50;;;;;;;-143.21;46.49;70349.38;5124195;27;20199;-83
2023/08/05 02:09:54;;;;;;;9.55;6.90;;;;;;;-143.21;46.58;70343.44;5109365;27;20188;-84
2023/08/05 02:12:21;;;;;;;13.18;7.30;;;;;;;-143.21;46.65;70339.47;5109673;28;20702;-83
2023/08/05 02:14:51;;;;;;;7.70;6.60;;;;;;;-143.21;46.42;70321.63;5110079;27;20196;-83
2023/08/05 02:17:20;;;;;;;8.50;6.88;;;;;;;-143.21;46.24;70317.66;5110454;27;20227;-83
2023/08/05 02:19:47;;;;;;;9.77;7.18;;;;;;;-143.21;46.16;70311.72;5127076;27;20675;-83
2023/08/05 02:22:14;;;;;;;9.80;6.97;;;;;;;-143.21;46.15;70319.66;5125291;27;20226;-83
2023/08/05 02:24:40;;;;;;;10.90;7.47;;;;;;;-143.21;46.33;70333.53;5109733;27;20231;-82
2023/08/05 02:27:08;;;;;;;9.02;6.88;;;;;;;-143.21;46.55;70337.50;5110039;28;20278;-84
2023/08/05 02:29:34;;;;;;;10.20;7.53;;;;;;;-143.21;46.39;70335.50;5109600;28;20210;-84
2023/08/05 02:32:02;;;;;;;10.75;7.07;;;;;;;-143.21;46.48;70339.47;5105614;28;20295;-83
2023/08/05 02:34:30;;;;;;;8.23;6.82;;;;;;;-143.21;46.65;70349.38;5110143;28;20212;-83
2023/08/05 02:36:57;;;;;;;12.90;7.60;;;;;;;-143.21;46.65;70353.34;5110692;28;20207;-83
2023/08/05 02:39:24;;;;;;;7.90;7.15;;;;;;;-143.21;46.65;70345.41;5109944;28;20199;-83
2023/08/05 02:41:50;;;;;;;7.78;7.00;;;;;;;-143.21;46.58;70345.41;5119402;28;20200;-84
2023/08/05 02:44:17;;;;;;;11.95;7.05;;;;;;;-143.21;46.84;70359.28;5109873;28;20622;-85
2023/08/05 02:46:44;;;;;;;7.95;7.10;;;;;;;-143.21;46.76;70355.31;5110150;28;20203;-84
2023/08/05 02:49:11;;;;;;;10.10;7.00;;;;;;;-143.21;46.95;70355.31;5109387;28;20689;-84
2023/08/05 02:51:39;;;;;;;11.35;7.28;;;;;;;-143.21;46.97;70367.22;5109405;28;20232;-84
2023/08/05 02:54:06;;;;;;;8.52;6.90;;;;;;;-143.21;46.95;70353.34;5109371;28;20216;-84
2023/08/05 02:56:34;;;;;;;7.65;6.82;;;;;;;-143.21;46.89;70357.31;5125414;28;20203;-84
2023/08/05 02:59:00;;;;;;;8.50;7.07;;;;;;;-143.21;47.03;70353.34;5110067;27;20621;-84
2023/08/05 03:01:27;;;;;;;12.63;7.38;;;;;;;-143.21;47.05;70357.31;5109677;28;20196;-84
2023/08/05 03:03:54;;;;;;;7.60;6.80;;;;;;;-143.21;47.20;70367.22;5113783;27;20227;-84
2023/08/05 03:06:21;;;;;;;10.32;6.95;;;;;;;-143.21;47.50;70367.22;5118435;27;20214;-84
2023/08/05 03:08:49;;;;;;;7.70;6.93;;;;;;;-143.21;47.40;70371.19;5113256;27;20204;-84
2023/08/05 03:11:16;;;;;;;8.05;6.68;;;;;;;-143.21;47.34;70377.13;5112997;27;20206;-83
2023/08/05 03:13:43;;;;;;;8.52;7.03;;;;;;;-143.21;47.51;70387.03;5113823;27;20226;-84
2023/08/05 03:16:11;;;;;;;8.00;7.20;;;;;;;-143.21;47.32;70385.06;5112879;27;20210;-83
2023/08/05 03:18:38;;;;;;;9.13;6.90;;;;;;;-143.21;47.51;70387.03;5113006;27;20204;-83
2023/08/05 03:21:05;;;;;;;10.63;6.93;;;;;;;-143.21;47.57;70392.97;5113749;27;20682;-84
2023/08/05 03:23:32;;;;;;;9.90;7.22;;;;;;;-143.21;47.79;70400.91;5113284;27;20216;-84
2023/08/05 03:26:00;;;;;;;8.27;6.65;;;;;;;-143.21;47.71;70404.88;5123504;27;20218;-84
2023/08/05 03:28:27;;;;;;;7.57;6.88;;;;;;;-143.21;47.68;70402.91;5113121;27;20196;-83
2023/08/05 03:30:54;;;;;;;7.95;7.15;;;;;;;-143.21;47.68;70391.00;5112969;27;20602;-83
2023/08/05 03:33:21;;;;;;;9.95;7.60;;;;;;;-143.21;47.54;70387.03;5112734;27;20235;-82
2023/08/05 03:35:48;;;;;;;10.20;7.22;;;;;;;-143.21;47.39;70375.16;5112306;27;20203;-83
2023/08/05 03:38:15;;;;;;;11.98;7.18;;;;;;;-143.21;47.35;70385.06;5111905;27;20199;-81
2023/08/05 03:40:42;;;;;;;8.55;7.28;;;;;;;-143.21;47.64;70389.03;5111972;28;20545;-81
2023/08/05 03:43:10;;;;;;;12.73;7.65;;;;;;;-143.21;47.50;70400.91;5120980;27;20196;-82
2023/08/05 03:45:37;;;;;;;11.00;6.68;;;;;;;-143.21;47.53;70412.81;5114627;27;20200;-81
2023/08/05 03:48:04;;;;;;;10.10;6.95;;;;;;;-143.21;47.68;70414.78;5112528;27;20207;-83
2023/08/05 03:50:31;;;;;;;8.63;7.53;;;;;;;-143.21;47.67;70416.78;5119419;27;20199;-83
2023/08/05 03:52:58;;;;;;;8.18;7.25;;;;;;;-143.21;47.64;70408.84;5126950;27;20235;-79
2023/08/05 03:55:26;;;;;;;7.90;7.10;;;;;;;-143.21;47.45;70404.88;5118570;27;20298;-79
2023/08/05 03:57:52;;;;;;;8.52;6.50;;;;;;;-143.21;47.31;70394.97;5122407;27;20238;-79
2023/08/05 04:00:21;;;;;;;12.13;6.88;;;;;;;-143.21;47.32;70387.03;5125841;27;20733;-79
2023/08/05 04:02:48;;;;;;;10.63;6.80;;;;;;;-143.21;47.23;70387.03;5122205;27;20201;-79
2023/08/05 04:05:14;;;;;;;9.00;7.07;;;;;;;-143.21;47.26;70391.00;5111836;27;20211;-80
2023/08/05 04:07:42;;;;;;;8.77;6.57;;;;;;;-143.21;47.29;70392.97;5116064;27;20195;-79
2023/08/05 04:10:12;;;;;;;7.45;6.45;;;;;;;-143.21;47.09;70377.13;5112607;27;20228;-79
2023/08/05 04:12:38;;;;;;;7.00;6.30;;;;;;;-143.21;46.71;70359.28;5115910;27;20250;-79
2023/08/05 04:15:08;;;;;;;7.25;6.40;;;;;;;-143.21;46.60;70353.34;5122795;27;20200;-80
2023/08/05 04:17:36;;;;;;;10.13;6.75;;;;;;;-143.21;46.76;70367.22;5111175;27;20204;-80
2023/08/05 04:20:03;;;;;;;7.03;6.32;;;;;;;-143.21;46.63;70365.25;5116449;27;20210;-79
2023/08/05 04:22:30;;;;;;;10.73;6.50;;;;;;;-143.21;46.82;70379.09;5128011;27;20585;-80
2023/08/05 04:24:57;;;;;;;7.90;6.45;;;;;;;-143.21;46.83;70383.06;5128295;27;20279;-80
2023/08/05 04:27:25;;;;;;;16.85;7.40;;;;;;;-143.21;46.89;70377.13;5125375;27;20280;-80
2023/08/05 04:29:51;;;;;;;10.60;6.97;;;;;;;-143.21;46.94;70383.06;5111475;27;20684;-80
2023/08/05 04:32:18;;;;;;;8.32;6.47;;;;;;;-143.21;46.91;70377.13;5110713;27;20834;-80
2023/08/05 04:34:46;;;;;;;6.93;6.22;;;;;;;-143.21;46.91;70375.16;5113413;27;20255;-80
2023/08/05 04:37:17;;;;;;;9.15;6.95;;;;;;;-143.21;46.95;70389.03;5126322;27;20208;-81
2023/08/05 04:39:44;;;;;;;11.50;6.50;;;;;;;-143.21;46.90;70392.97;5112700;27;20238;-79
2023/08/05 04:42:11;;;;;;;8.43;6.60;;;;;;;-143.21;46.85;70385.06;5127563;27;20215;-79
2023/08/05 04:44:40;;;;;;;9.60;6.63;;;;;;;-143.21;46.87;70387.03;5110856;27;20675;-79
2023/08/05 04:47:08;;;;;;;9.50;6.60;;;;;;;-143.21;46.69;70379.09;5124727;27;20203;-79
2023/08/05 04:49:35;;;;;;;10.55;6.88;;;;;;;-143.21;46.37;70379.09;5111265;27;20646;-79
2023/08/05 04:52:06;;;;;;;11.02;7.53;;;;;;;-143.21;46.42;70367.22;5115333;27;20249;-79
2023/08/05 04:54:36;;;;;;;11.45;6.80;;;;;;;-143.21;46.55;70371.19;5105848;27;20276;-79
2023/08/05 04:57:03;;;;;;;11.27;6.72;;;;;;;-143.21;46.68;70373.16;5094007;27;20666;-82
2023/08/05 04:59:29;;;;;;;10.13;6.90;;;;;;;-143.21;46.82;70377.13;5110412;27;20214;-82
2023/08/05 05:01:56;;;;;;;8.48;6.95;;;;;;;-143.21;46.88;70379.09;5111276;28;20204;-83
2023/08/05 05:04:23;;;;;;;10.05;7.28;;;;;;;-143.21;46.97;70379.09;5110454;27;20196;-79
2023/08/05 05:06:50;;;;;;;12.23;6.63;;;;;;;-143.21;46.82;70377.13;5114488;27;20200;-79
2023/08/05 05:09:18;;;;;;;16.20;7.75;;;;;;;-143.21;46.84;70383.06;5109819;27;20644;-79
2023/08/05 05:11:45;;;;;;;8.10;6.57;;;;;;;-143.21;46.65;70377.13;5113637;27;20208;-80
2023/08/05 05:14:12;;;;;;;9.73;7.05;;;;;;;-143.21;46.82;70373.16;5110522;28;20255;-81
2023/08/05 05:16:38;;;;;;;12.55;6.75;;;;;;;-143.21;46.82;70377.13;5115663;27;20192;-81
2023/08/05 05:19:05;;;;;;;9.57;6.53;;;;;;;-143.21;46.61;70369.19;5110909;27;20683;-81
2023/08/05 05:21:32;;;;;;;9.27;6.90;;;;;;;-143.21;46.62;70357.31;5110922;27;20204;-81
2023/08/05 05:23:59;;;;;;;9.88;6.88;;;;;;;-143.21;46.83;70359.28;5114302;27;20214;-81
2023/08/05 05:26:27;;;;;;;8.15;7.18;;;;;;;-143.21;46.61;70347.41;5118130;27;20200;-80
2023/08/05 05:28:54;;;;;;;9.20;7.18;;;;;;;-143.21;46.32;70339.47;5109874;27;20627;-79
2023/08/05 05:31:21;;;;;;;9.43;6.93;;;;;;;-143.21;46.24;70331.53;5109127;27;20199;-79
2023/08/05 05:33:48;;;;;;;9.65;7.72;;;;;;;-143.21;46.45;70339.47;5124255;27;20231;-79
2023/08/05 05:36:15;;;;;;;8.30;6.70;;;;;;;-143.21;46.61;70351.38;5126009;27;20293;-78
2023/08/05 05:38:42;;;;;;;8.88;6.90;;;;;;;-143.21;46.42;70359.28;5113067;27;20681;-79
2023/08/05 05:41:08;;;;;;;9.95;6.88;;;;;;;-143.21;46.59;70355.31;5110455;27;20199;-80
2023/08/05 05:43:38;;;;;;;11.00;6.90;;;;;;;-143.21;46.25;70351.38;5106953;28;20203;-78
2023/08/05 05:46:05;;;;;;;10.55;7.00;;;;;;;-143.21;46.31;70347.41;5108043;27;20671;-79
2023/08/05 05:48:32;;;;;;;12.45;7.25;;;;;;;-143.21;46.48;70345.41;5120713;27;20678;-79
2023/08/05 05:50:58;;;;;;;7.45;6.75;;;;;;;-143.21;46.51;70339.47;5111586;27;20207;-79
2023/08/05 05:53:25;;;;;;;10.50;7.13;;;;;;;-143.21;46.27;70329.56;5106431;27;20273;-78
2023/08/05 05:55:53;;;;;;;10.60;7.30;;;;;;;-143.21;46.37;70331.53;5118406;27;20211;-78
2023/08/05 05:58:20;;;;;;;8.85;7.20;;;;;;;-143.21;46.34;70335.50;5118849;27;20526;-79
2023/08/05 06:00:54;;;;;;;9.93;6.95;;;;;;;-143.21;46.33;70325.59;5113348;27;20208;-79
2023/08/05 06:03:21;;;;;;;8.90;7.38;;;;;;;-143.21;46.06;70319.66;5119065;27;20214;-79
2023/08/05 06:05:50;;;;;;;10.93;7.00;;;;;;;-143.21;46.05;70301.81;5117056;27;20260;-79
2023/08/05 06:08:16;;;;;;;11.38;7.30;;;;;;;-143.21;45.73;70291.91;5105320;27;20219;-78
2023/08/05 06:10:43;;;;;;;12.40;7.53;;;;;;;-143.21;45.92;70295.88;5107185;27;20207;-79
2023/08/05 06:13:10;;;;;;;10.57;7.53;;;;;;;-143.21;46.04;70293.88;5110746;27;20195;-79
2023/08/05 06:15:39;;;;;;;7.88;6.78;;;;;;;-143.21;46.34;70293.88;5115451;27;20677;-79
2023/08/05 06:18:08;;;;;;;9.95;7.40;;;;;;;-143.21;46.24;70289.91;5115534;27;20681;-79
2023/08/05 06:20:35;;;;;;;8.00;6.80;;;;;;;-143.21;46.00;70287.94;5116324;27;20195;-80
2023/08/05 06:23:02;;;;;;;10.65;7.47;;;;;;;-143.21;46.41;70289.91;5107339;28;20265;-80
2023/08/05 06:25:29;;;;;;;9.30;8.07;;;;;;;-143.21;46.22;70276.03;5107222;28;20671;-80
2023/08/05 06:27:55;;;;;;;11.55;6.93;;;;;;;-143.21;45.82;70258.22;5114438;28;20602;-80
2023/08/05 06:30:22;;;;;;;13.85;8.98;;;;;;;-143.21;45.96;70254.25;5117074;27;20223;-79
2023/08/05 06:32:49;;;;;;;10.32;7.13;;;;;;;-143.21;45.77;70250.28;5097776;28;20570;-79
2023/08/05 06:35:17;;;;;;;12.45;7.28;;;;;;;-143.21;45.93;70238.38;5108055;28;20273;-79
2023/08/05 06:37:44;;;;;;;11.68;7.30;;;;;;;-143.21;45.74;70236.41;5109463;27;20549;-79
2023/08/05 06:40:12;;;;;;;11.40;7.30;;;;;;;-143.21;45.27;70222.53;5110473;27;20705;-79
2023/08/05 06:42:39;;;;;;;9.52;7.30;;;;;;;-143.21;45.47;70204.69;5110257;27;20314;-77
2023/08/05 06:45:07;;;;;;;12.63;7.50;;;;;;;-143.21;45.29;70190.81;5115552;27;20620;-78
2023/08/05 06:47:35;;;;;;;9.05;6.90;;;;;;;-143.21;44.90;70182.91;5123476;27;20601;-77
2023/08/05 06:50:04;;;;;;;9.75;7.43;;;;;;;-143.21;44.86;70174.97;5111582;27;20306;-78
2023/08/05 06:52:33;;;;;;;10.07;7.10;;;;;;;-143.21;45.28;70180.91;5110493;27;20240;-79
2023/08/05 06:55:01;;;;;;;11.95;7.55;;;;;;;-143.21;45.08;70172.97;5115312;27;20218;-79
2023/08/05 06:57:28;;;;;;;11.30;7.55;;;;;;;-143.21;44.60;70167.03;5123463;27;20204;-79
2023/08/05 06:59:55;;;;;;;10.75;7.88;;;;;;;-143.21;44.53;70165.06;5112327;27;20200;-79
2023/08/05 07:02:22;;;;;;;13.48;7.97;;;;;;;-143.21;44.93;70161.09;5127863;27;20268;-79
2023/08/05 07:04:49;;;;;;;8.45;7.22;;;;;;;-143.21;44.61;70159.13;5125396;27;20204;-79
2023/08/05 07:07:16;;;;;;;10.43;7.43;;;;;;;-143.21;44.89;70151.19;5109424;27;20199;-78
2023/08/05 07:09:44;;;;;;;10.25;7.00;;;;;;;-143.21;44.61;70143.25;5126358;27;20207;-79
2023/08/05 07:12:11;;;;;;;9.25;7.35;;;;;;;-143.21;44.46;70131.38;5111591;27;20386;-79
2023/08/05 07:14:39;;;;;;;8.88;7.50;;;;;;;-143.21;44.27;70129.38;5114072;27;20239;-79
2023/08/05 07:17:06;;;;;;;9.50;7.50;;;;;;;-143.21;43.99;70117.50;5111832;27;20207;-79
2023/08/05 07:19:33;;;;;;;9.35;8.02;;;;;;;-143.21;43.99;70109.56;5110339;27;20207;-81
2023/08/05 07:22:00;;;;;;;8.80;7.60;;;;;;;-143.21;43.77;70107.59;5128209;27;20212;-79
2023/08/05 07:24:27;;;;;;;8.63;7.47;;;;;;;-143.21;44.27;70097.66;5110211;27;20211;-78
2023/08/05 07:26:55;;;;;;;10.30;7.57;;;;;;;-143.21;43.50;70095.69;5127439;27;20226;-79
2023/08/05 07:29:22;;;;;;;12.10;7.38;;;;;;;-143.21;43.71;70083.81;5127572;27;20211;-78
2023/08/05 07:31:49;;;;;;;8.13;7.28;;;;;;;-143.21;43.62;70077.84;5110228;27;20590;-79
2023/08/05 07:34:16;;;;;;;11.93;7.82;;;;;;;-143.21;43.67;70071.91;5118025;27;20224;-78
2023/08/05 07:36:43;;;;;;;12.68;8.35;;;;;;;-143.21;44.06;70071.91;5110402;27;20261;-79
2023/08/05 07:39:10;;;;;;;12.60;7.68;;;;;;;-143.21;43.27;70065.97;5128838;27;20303;-79
2023/08/05 07:41:40;;;;;;;8.60;7.63;;;;;;;-143.21;43.46;70050.09;5110977;27;20212;-79
2023/08/05 07:44:12;;;;;;;10.65;8.05;;;;;;;-143.21;43.54;70042.19;5111227;27;20204;-78
2023/08/05 07:46:40;;;;;;;12.20;7.78;;;;;;;-143.21;43.25;70038.22;5111319;27;20211;-78
2023/08/05 07:49:07;;;;;;;16.92;8.20;;;;;;;-143.21;43.36;70032.28;5127647;27;20317;-78
2023/08/05 07:51:34;;;;;;;8.25;7.38;;;;;;;-143.21;43.32;70014.44;5109934;27;20251;-78
2023/08/05 07:54:01;;;;;;;9.88;6.78;;;;;;;-143.21;43.59;70014.44;5114449;27;20319;-81
2023/08/05 07:56:28;;;;;;;12.48;9.70;;;;;;;-143.21;43.61;70000.56;5110377;27;20199;-81
2023/08/05 07:58:54;;;;;;;9.57;7.40;;;;;;;-143.21;41.57;69984.72;5125536;27;20202;-80
2023/08/05 08:01:23;;;;;;;10.23;8.60;;;;;;;-143.21;41.97;69986.69;5112195;27;20207;-81
2023/08/05 08:03:53;;;;;;;9.82;7.03;;;;;;;-143.21;41.81;69990.66;5110615;27;20586;-82
2023/08/05 08:06:21;;;;;;;10.20;7.32;;;;;;;-143.21;41.92;70012.47;5109294;27;20199;-88
2023/08/05 08:08:48;;;;;;;8.20;6.75;;;;;;;-143.21;39.49;70024.34;5110721;27;20200;-83
2023/08/05 08:11:15;;;;;;;8.65;6.50;;;;;;;-143.21;40.70;70026.31;5111440;27;20200;-82
2023/08/05 08:13:45;;;;;;;8.13;7.10;;;;;;;-143.21;40.48;70050.09;5111424;27;20200;-83
2023/08/05 08:16:13;;;;;;;8.10;7.30;;;;;;;-143.21;41.72;70062.00;5111758;27;20196;-81
2023/08/05 08:18:41;;;;;;;8.38;7.38;;;;;;;-143.21;40.13;70065.97;5125597;27;20206;-83
2023/08/05 08:21:08;;;;;;;13.00;6.80;;;;;;;-143.21;41.65;70101.63;5117574;27;20232;-82
2023/08/05 08:23:35;;;;;;;8.38;7.47;;;;;;;-143.21;41.96;70109.56;5110221;27;20744;-83
2023/08/05 08:26:02;;;;;;;10.98;7.35;;;;;;;-143.21;43.24;70109.56;5111996;27;20196;-82
2023/08/05 08:28:29;;;;;;;8.32;7.47;;;;;;;-143.21;43.80;70097.66;5125216;27;20286;-81
2023/08/05 08:30:57;;;;;;;10.05;7.85;;;;;;;-143.21;43.73;70085.78;5117704;27;20553;-80
2023/08/05 08:33:25;;;;;;;8.43;7.50;;;;;;;-143.21;42.86;70085.78;5117932;27;20626;-84
2023/08/05 08:35:53;;;;;;;8.98;7.47;;;;;;;-143.21;42.74;70097.66;5112392;27;20218;-86
2023/08/05 08:38:23;;;;;;;9.23;8.25;;;;;;;-143.21;44.34;70083.81;5117309;27;20683;-86
2023/08/05 08:40:52;;;;;;;11.15;7.70;;;;;;;-143.21;42.70;70056.06;5111276;28;20698;-85
2023/08/05 08:43:19;;;;;;;10.63;7.88;;;;;;;-143.21;43.58;70046.16;5126866;27;20191;-85
2023/08/05 08:45:48;;;;;;;11.85;7.80;;;;;;;-143.21;43.22;70052.09;5123125;27;20232;-86
2023/08/05 08:48:16;;;;;;;11.50;7.88;;;;;;;-143.21;43.09;70040.19;5118809;27;20642;-87
2023/08/05 08:50:44;;;;;;;10.00;7.70;;;;;;;-143.21;42.11;70032.28;5119226;27;20220;-87
2023/08/05 08:53:14;;;;;;;9.25;7.88;;;;;;;-143.21;43.85;69984.72;5113682;27;20295;-82
2023/08/05 08:55:41;;;;;;;9.10;8.00;;;;;;;-143.21;41.65;69945.06;5109717;27;20584;-82
2023/08/05 08:58:08;;;;;;;10.25;8.23;;;;;;;-143.21;41.51;69953.00;5110150;27;20196;-81
2023/08/05 09:00:35;;;;;;;14.90;8.50;;;;;;;-143.21;42.66;69929.22;5112602;27;20655;-81
2023/08/05 09:03:02;;;;;;;9.68;7.95;;;;;;;-143.21;42.01;69879.69;5109724;27;20207;-81
2023/08/05 09:05:37;;;;;;;11.13;7.95;;;;;;;-143.21;41.49;69849.94;5100430;27;20226;-81
2023/08/05 09:08:04;;;;;;;10.10;8.02;;;;;;;-143.21;41.00;69895.53;5115621;27;20207;-81
2023/08/05 09:10:32;;;;;;;9.52;8.45;;;;;;;-143.21;40.23;69905.44;5125302;27;20187;-81
2023/08/05 09:13:00;;;;;;;10.15;8.73;;;;;;;-143.21;42.41;69909.41;5110539;27;20211;-81
2023/08/05 09:15:33;;;;;;;12.05;9.20;;;;;;;-143.21;41.74;69925.25;5108870;27;20322;-82
2023/08/05 09:18:00;;;;;;;10.30;9.02;;;;;;;-143.21;42.27;69909.41;5108885;27;20245;-81
2023/08/05 09:20:27;;;;;;;10.23;9.15;;;;;;;-143.21;42.17;69891.56;5115748;27;20198;-82
2023/08/05 09:22:55;;;;;;;12.05;8.55;;;;;;;-143.21;42.06;69844.00;5114579;27;20275;-84
2023/08/05 09:25:23;;;;;;;11.10;9.00;;;;;;;-143.21;41.13;69812.28;5109962;27;20223;-84
2023/08/05 09:27:53;;;;;;;10.80;8.10;;;;;;;-143.21;40.39;69786.53;5109906;28;20199;-84
2023/08/05 09:30:25;;;;;;;13.35;8.75;;;;;;;-143.21;40.33;69782.56;5108738;27;20215;-84
2023/08/05 09:32:53;;;;;;;12.13;9.25;;;;;;;-143.21;40.38;69784.56;5099352;27;20206;-85
2023/08/05 09:35:20;;;;;;;11.38;9.15;;;;;;;-143.21;40.13;69750.88;5108180;27;20663;-84
2023/08/05 09:37:48;;;;;;;11.18;9.10;;;;;;;-143.21;39.84;69713.22;5109031;27;20215;-83
2023/08/05 09:40:22;;;;;;;10.73;8.90;;;;;;;-143.21;38.66;69699.34;5108454;27;20290;-85
2023/08/05 09:42:51;;;;;;;12.65;8.20;;;;;;;-143.21;38.83;69677.53;5109272;27;20223;-85
2023/08/05 09:45:20;;;;;;;12.43;9.32;;;;;;;-143.21;38.56;69671.59;5108422;27;20666;-85
2023/08/05 09:47:49;;;;;;;10.60;9.43;;;;;;;-143.21;38.63;69669.63;5108929;28;20196;-82
2023/08/05 09:50:18;;;;;;;11.18;9.32;;;;;;;-143.21;38.55;69657.72;5108772;27;20196;-84
2023/08/05 09:52:49;;;;;;;10.05;8.88;;;;;;;-143.21;38.58;69649.81;5108845;27;20323;-84
2023/08/05 09:55:18;;;;;;;9.90;8.90;;;;;;;-143.21;37.61;69629.97;5108767;27;20232;-85
2023/08/05 09:57:47;;;;;;;11.55;8.38;;;;;;;-143.21;37.32;69608.19;5108947;27;20232;-86
2023/08/05 10:00:16;;;;;;;9.75;8.32;;;;;;;-143.21;37.73;69596.31;5107934;28;20695;-85
2023/08/05 10:02:45;;;;;;;9.95;8.60;;;;;;;-143.21;37.10;69590.34;5108330;27;20413;-85
2023/08/05 10:05:13;;;;;;;9.18;8.18;;;;;;;-143.21;37.45;69584.41;5108072;28;20203;-85
2023/08/05 10:07:43;;;;;;;10.35;8.75;;;;;;;-143.21;36.76;69594.31;5106194;27;20200;-86
2023/08/05 10:10:12;;;;;;;9.93;8.23;;;;;;;-143.21;37.35;69616.13;5108973;28;20264;-85
2023/08/05 10:12:44;;;;;;;9.75;8.10;;;;;;;-143.21;38.33;69606.22;5107589;27;20203;-86
2023/08/05 10:15:19;;;;;;;11.07;8.50;;;;;;;-143.21;37.91;69622.06;5113198;27;20223;-87
2023/08/05 10:17:49;;;;;;;10.60;8.40;;;;;;;-143.21;37.60;69582.44;5119087;27;20277;-86
2023/08/05 10:20:17;;;;;;;12.15;8.63;;;;;;;-143.21;37.67;69590.34;5108483;28;20215;-85
2023/08/05 10:23:04;;;;;;;11.85;8.00;;;;;;;-143.21;36.87;69548.75;5113377;27;20252;-84
2023/08/05 10:25:49;;;;;;;11.57;8.13;;;;;;;-143.21;37.01;69542.78;5109509;27;20650;-82
2023/08/05 10:28:42;;;;;;;8.73;7.85;;;;;;;-143.21;36.13;69517.03;5118884;28;20214;-83
2023/08/05 10:31:25;;;;;;;10.82;8.20;;;;;;;-143.21;36.38;69521.00;5118519;27;20278;-82
2023/08/05 10:34:13;;;;;;;9.32;8.40;;;;;;;-143.21;35.87;69513.06;5111643;28;20203;-83
2023/08/05 10:36:44;;;;;;;8.82;7.90;;;;;;;-143.21;36.21;69491.28;5126676;28;20234;-83
2023/08/05 10:39:42;;;;;;;8.95;8.05;;;;;;;-143.21;36.25;69501.19;5110171;28;20659;-84
2023/08/05 10:42:32;;;;;;;11.07;8.18;;;;;;;-143.21;35.68;69489.28;5125615;27;20211;-84
2023/08/05 10:44:59;;;;;;;15.07;9.27;;;;;;;-143.21;34.77;69509.13;5111869;28;20302;-84
2023/08/05 10:47:26;;;;;;;11.55;8.38;;;;;;;-143.21;35.97;69519.03;5122718;28;20597;-84
2023/08/05 10:49:57;;;;;;;11.48;8.23;;;;;;;-143.21;35.74;69517.03;5111174;28;20233;-84
2023/08/05 10:52:24;;;;;;;11.07;8.90;;;;;;;-143.21;34.69;69503.16;5122202;27;20235;-84
2023/08/05 10:54:53;;;;;;;10.13;8.88;;;;;;;-143.21;35.74;69471.47;5111774;27;20246;-83
2023/08/05 10:58:15;;;;;;;11.48;8.27;;;;;;;-143.21;36.02;69443.72;5110023;28;20212;-85
2023/08/05 11:00:44;;;;;;;14.23;9.15;;;;;;;-143.21;35.42;69489.28;5115635;28;20200;-89
2023/08/05 11:03:31;;;;;;;10.93;8.30;;;;;;;-143.21;35.35;69505.16;5108088;27;20208;-87
2023/08/05 11:06:04;;;;;;;11.00;8.65;;;;;;;-143.21;36.04;69453.63;5119597;28;20214;-88
2023/08/05 11:08:32;;;;;;;13.77;7.97;;;;;;;-143.21;35.79;69374.38;5111316;28;20203;-88
2023/08/05 11:11:13;;;;;;;10.80;8.48;;;;;;;-143.21;35.63;69350.59;5108262;28;20204;-89
2023/08/05 11:13:41;;;;;;;12.98;8.40;;;;;;;-143.21;34.77;69350.59;5107590;28;20734;-88
2023/08/05 11:16:10;;;;;;;10.73;8.50;;;;;;;-143.21;34.76;69308.97;5107893;28;20231;-88
2023/08/05 11:18:38;;;;;;;12.82;8.73;;;;;;;-143.21;34.66;69318.88;5108387;28;20437;-90